• Join FlightAware (Why Join?)
  • Login
  • US Flag 
10:25PM EDT


 

Airport Tracker/Info


-or-


 

Live Flight TrackerFlight Track Log ✈ N9990V ✈ 13-Dec-2013 ✈ KSAV - KEHO

Flight Track Log - Related Links

Times and Time Zones

All times are in EST time to prevent confusion due to time zone crossing. See the N9990V flight status page for this flight to view local times or setup timezone preferences in your user account.

Time Position Orientation Groundspeed Altitude Reporting Facility
EST Latitude Longitude Course Direction KTS MPH feet Rate Location/Type
02:41PM 32.6203 -81.1586 349° North 111 128 2,600  Level Jacksonville Center
02:42PM 32.6494 -81.1656 349° North 105 121 2,600 -60 Level Jacksonville Center
02:43PM 32.6872 -81.1672 358° North 110 127 2,500 -60 Descending Jacksonville Center
02:44PM 32.7164 -81.1642 North 110 127 2,500  Level Jacksonville Center
02:45PM 32.7497 -81.1611 North 110 127 2,500  Level Jacksonville Center
02:46PM 32.7767 -81.1581 North 105 121 2,600  Climbing Jacksonville Center
02:47PM 32.8058 -81.1525 North 105 121 2,500 -60 Descending Jacksonville Center
02:48PM 32.8394 -81.1519 North 105 121 2,500  Level Jacksonville Center
02:49PM 32.8706 -81.1514 North 105 121 2,500  Level Jacksonville Center
02:50PM 32.9000 -81.1583 349° North 105 121 2,500  Level Jacksonville Center
02:51PM 32.9292 -81.1600 357° North 105 121 2,600  Climbing Jacksonville Center
02:52PM 32.9606 -81.1619 357° North 105 121 2,600 -60 Level Jacksonville Center
02:53PM 32.9897 -81.1664 353° North 105 121 2,500 -60 Descending Jacksonville Center
02:54PM 33.0211 -81.1731 350° North 105 121 2,500  Level Jacksonville Center
02:55PM 33.0506 -81.1775 353° North 105 121 2,500  Level Jacksonville Center
02:56PM 33.0839 -81.1819 354° North 105 121 2,500  Level Jacksonville Center
02:57PM 33.1111 -81.1889 348° North 105 121 2,500  Level Jacksonville Center
02:58PM 33.1425 -81.1883 North 105 121 2,500  Level Jacksonville Center
02:59PM 33.1717 -81.1903 357° North 105 121 2,500  Level Jacksonville Center
03:00PM 33.2011 -81.1969 349° North 105 121 2,600  Climbing Jacksonville Center
03:01PM 33.2344 -81.1989 357° North 105 121 2,500  Descending Jacksonville Center
03:02PM 33.2636 -81.2008 357° North 100 115 2,600 60 Climbing Jacksonville Center
03:04PM 33.3111 -81.2409 352° North  Level FlightAware Approximate
03:11PM 33.5452 -81.2806 352° North  Level FlightAware Approximate
03:12PM 33.5786 -81.2863 352° North  Level FlightAware Approximate
03:13PM 33.6121 -81.2920 352° North  Level FlightAware Approximate
03:14PM 33.6455 -81.2977 352° North  Level FlightAware Approximate
03:15PM 33.6790 -81.3034 352° North  Level FlightAware Approximate
03:16PM 33.7124 -81.3091 352° North  Level FlightAware Approximate
03:17PM 33.7458 -81.3148 352° North  Level FlightAware Approximate
03:18PM 33.7793 -81.3205 352° North  Level FlightAware Approximate
03:19PM 33.8127 -81.3263 352° North  Level FlightAware Approximate
03:20PM 33.8462 -81.3320 352° North  Level FlightAware Approximate
03:21PM 33.8796 -81.3377 352° North  Level FlightAware Approximate
03:22PM 33.9130 -81.3435 352° North  Level FlightAware Approximate
03:23PM 33.9465 -81.3492 352° North  Level FlightAware Approximate
03:24PM 33.9799 -81.3549 352° North  Level FlightAware Approximate
03:25PM 34.0134 -81.3607 352° North  Level FlightAware Approximate
03:26PM 34.0468 -81.3665 352° North  Level FlightAware Approximate
03:27PM 34.0802 -81.3722 352° North  Level FlightAware Approximate
03:28PM 34.1137 -81.3780 352° North  Level FlightAware Approximate
03:29PM 34.1471 -81.3838 352° North  Level FlightAware Approximate
03:30PM 34.1806 -81.3895 352° North  Level FlightAware Approximate
03:31PM 34.2140 -81.3953 352° North  Level FlightAware Approximate
03:32PM 34.2474 -81.4011 352° North  Level FlightAware Approximate
03:33PM 34.2809 -81.4069 352° North  Level FlightAware Approximate
03:34PM 34.3143 -81.4127 352° North  Level FlightAware Approximate
03:35PM 34.3478 -81.4185 352° North  Level FlightAware Approximate
03:36PM 34.3812 -81.4243 352° North  Level FlightAware Approximate
03:37PM 34.4146 -81.4301 352° North  Level FlightAware Approximate
03:38PM 34.4481 -81.4363 351° North  Level FlightAware Approximate
03:39PM 34.4814 -81.4429 351° North  Level FlightAware Approximate
03:40PM 34.5147 -81.4496 351° North  Level FlightAware Approximate
03:41PM 34.5480 -81.4562 351° North  Level FlightAware Approximate
03:42PM 34.5814 -81.4629 351° North  Level FlightAware Approximate
03:43PM 34.6147 -81.4695 351° North  Level FlightAware Approximate
03:44PM 34.6480 -81.4762 351° North  Level FlightAware Approximate
03:45PM 34.6814 -81.4829 351° North  Level FlightAware Approximate
03:46PM 34.7147 -81.4896 351° North  Level FlightAware Approximate
03:47PM 34.7480 -81.4963 351° North  Level FlightAware Approximate
03:48PM 34.7814 -81.5029 351° North  Level FlightAware Approximate
03:49PM 34.8147 -81.5096 351° North  Level FlightAware Approximate
03:50PM 34.8480 -81.5162 351° North  Level FlightAware Approximate
03:51PM 34.8814 -81.5229 351° North  Level FlightAware Approximate
03:52PM 34.9147 -81.5295 351° North  Level FlightAware Approximate
03:53PM 34.9481 -81.5362 351° North  Level FlightAware Approximate
03:54PM 34.9814 -81.5428 351° North  Level FlightAware Approximate
03:55PM 35.0147 -81.5495 351° North  Level FlightAware Approximate
03:56PM 35.0480 -81.5562 351° North  Level FlightAware Approximate
03:57PM 35.0814 -81.5629 351° North  Level FlightAware Approximate
03:58PM 35.1147 -81.5695 351° North  Level FlightAware Approximate
03:59PM 35.1480 -81.5762 351° North  Level FlightAware Approximate
04:00PM 35.1814 -81.5829 351° North  Level FlightAware Approximate
04:01PM 35.2146 -81.5882 345° North  Level FlightAware Approximate
04:02PM 35.2472 -81.5991 345° North  Level FlightAware Approximate
04:03PM 35.2500 -81.6000 345° North  Level FlightAware Approximate
04:04PM 35.2557 -81.6008 345° North  Level Estimated
04:05PM 35.2500 -81.6000 345° North  Level FlightAware Approximate
04:06PM 35.2557 -81.6008 345° North  Level Estimated
04:07PM 35.2500 -81.6000 345° North  Level FlightAware Approximate
04:08PM 35.2557 -81.6008 345° North  Level Estimated
04:09PM 35.2500 -81.6000 345° North  Level FlightAware Approximate
04:10PM 35.2557 -81.6008 345° North  Level Estimated
04:11PM 35.2500 -81.6000 345° North  Level FlightAware Approximate
04:12PM 35.2557 -81.6008 345° North  Level Estimated
04:13PM 35.2500 -81.6000 345° North  Level FlightAware Approximate
04:14PM 35.2557 -81.6008 345° North  Level Estimated
04:15PM 35.2500 -81.6000 345° North  Level FlightAware Approximate
04:16PM 35.2557 -81.6008 345° North  Level Estimated